sensor_id;sensor_type;location;lat;lon;timestamp;P1;durP1;ratioP1;P2;durP2;ratioP2
7605;SDS011;3844;53.360;9.738;2023-04-25T00:00:45;13.43;;;7.07;;
7605;SDS011;3844;53.360;9.738;2023-04-25T00:02:46;14.65;;;6.90;;
7605;SDS011;3844;53.360;9.738;2023-04-25T00:04:47;14.05;;;7.05;;
7605;SDS011;3844;53.360;9.738;2023-04-25T00:06:51;14.15;;;6.18;;
7605;SDS011;3844;53.360;9.738;2023-04-25T00:08:53;10.13;;;5.25;;
7605;SDS011;3844;53.360;9.738;2023-04-25T00:10:56;12.60;;;6.03;;
7605;SDS011;3844;53.360;9.738;2023-04-25T00:12:57;14.27;;;6.70;;
7605;SDS011;3844;53.360;9.738;2023-04-25T00:14:58;17.65;;;6.20;;
7605;SDS011;3844;53.360;9.738;2023-04-25T00:17:00;12.57;;;6.05;;
7605;SDS011;3844;53.360;9.738;2023-04-25T00:19:01;14.93;;;5.68;;
7605;SDS011;3844;53.360;9.738;2023-04-25T00:21:04;16.45;;;5.55;;
7605;SDS011;3844;53.360;9.738;2023-04-25T00:23:06;18.80;;;5.28;;
7605;SDS011;3844;53.360;9.738;2023-04-25T00:25:07;16.10;;;4.82;;
7605;SDS011;3844;53.360;9.738;2023-04-25T00:27:08;16.77;;;4.82;;
7605;SDS011;3844;53.360;9.738;2023-04-25T00:29:09;14.20;;;4.53;;
7605;SDS011;3844;53.360;9.738;2023-04-25T00:31:10;18.58;;;4.68;;
7605;SDS011;3844;53.360;9.738;2023-04-25T00:33:11;19.33;;;4.55;;
7605;SDS011;3844;53.360;9.738;2023-04-25T00:35:12;16.80;;;4.95;;
7605;SDS011;3844;53.360;9.738;2023-04-25T00:37:12;18.95;;;5.13;;
7605;SDS011;3844;53.360;9.738;2023-04-25T00:39:13;19.50;;;5.05;;
7605;SDS011;3844;53.360;9.738;2023-04-25T00:41:14;18.75;;;4.93;;
7605;SDS011;3844;53.360;9.738;2023-04-25T00:43:15;15.93;;;4.85;;
7605;SDS011;3844;53.360;9.738;2023-04-25T00:45:16;16.83;;;4.78;;
7605;SDS011;3844;53.360;9.738;2023-04-25T00:47:18;18.27;;;5.07;;
7605;SDS011;3844;53.360;9.738;2023-04-25T00:49:19;16.70;;;4.90;;
7605;SDS011;3844;53.360;9.738;2023-04-25T00:51:20;21.60;;;4.82;;
7605;SDS011;3844;53.360;9.738;2023-04-25T00:53:22;24.42;;;5.07;;
7605;SDS011;3844;53.360;9.738;2023-04-25T00:55:23;22.60;;;5.28;;
7605;SDS011;3844;53.360;9.738;2023-04-25T00:57:24;26.63;;;4.60;;
7605;SDS011;3844;53.360;9.738;2023-04-25T00:59:25;23.00;;;5.13;;
7605;SDS011;3844;53.360;9.738;2023-04-25T01:01:27;31.08;;;5.72;;
7605;SDS011;3844;53.360;9.738;2023-04-25T01:03:28;21.73;;;5.22;;
7605;SDS011;3844;53.360;9.738;2023-04-25T01:05:30;27.02;;;5.20;;
7605;SDS011;3844;53.360;9.738;2023-04-25T01:07:31;21.20;;;4.90;;
7605;SDS011;3844;53.360;9.738;2023-04-25T01:09:32;25.88;;;5.35;;
7605;SDS011;3844;53.360;9.738;2023-04-25T01:11:33;23.75;;;4.82;;
7605;SDS011;3844;53.360;9.738;2023-04-25T01:13:34;21.95;;;4.80;;
7605;SDS011;3844;53.360;9.738;2023-04-25T01:15:35;25.52;;;4.35;;
7605;SDS011;3844;53.360;9.738;2023-04-25T01:17:36;22.17;;;4.93;;
7605;SDS011;3844;53.360;9.738;2023-04-25T01:19:37;26.90;;;5.10;;
7605;SDS011;3844;53.360;9.738;2023-04-25T01:21:38;28.80;;;4.95;;
7605;SDS011;3844;53.360;9.738;2023-04-25T01:23:39;25.98;;;4.80;;
7605;SDS011;3844;53.360;9.738;2023-04-25T01:25:40;31.17;;;5.30;;
7605;SDS011;3844;53.360;9.738;2023-04-25T01:27:41;27.48;;;4.80;;
7605;SDS011;3844;53.360;9.738;2023-04-25T01:29:42;24.75;;;4.93;;
7605;SDS011;3844;53.360;9.738;2023-04-25T01:31:44;27.60;;;5.07;;
7605;SDS011;3844;53.360;9.738;2023-04-25T01:33:45;27.67;;;5.03;;
7605;SDS011;3844;53.360;9.738;2023-04-25T01:35:45;31.90;;;5.50;;
7605;SDS011;3844;53.360;9.738;2023-04-25T01:37:47;32.47;;;5.30;;
7605;SDS011;3844;53.360;9.738;2023-04-25T01:39:49;25.00;;;5.18;;
7605;SDS011;3844;53.360;9.738;2023-04-25T01:41:50;36.92;;;5.75;;
7605;SDS011;3844;53.360;9.738;2023-04-25T01:43:50;29.98;;;5.13;;
7605;SDS011;3844;53.360;9.738;2023-04-25T01:45:51;35.35;;;5.32;;
7605;SDS011;3844;53.360;9.738;2023-04-25T01:47:52;27.35;;;4.90;;
7605;SDS011;3844;53.360;9.738;2023-04-25T01:49:53;25.98;;;4.93;;
7605;SDS011;3844;53.360;9.738;2023-04-25T01:51:54;31.13;;;5.40;;
7605;SDS011;3844;53.360;9.738;2023-04-25T01:53:55;24.95;;;5.22;;
7605;SDS011;3844;53.360;9.738;2023-04-25T01:55:57;25.75;;;5.18;;
7605;SDS011;3844;53.360;9.738;2023-04-25T01:57:57;30.25;;;4.60;;
7605;SDS011;3844;53.360;9.738;2023-04-25T02:00:01;30.60;;;5.28;;
7605;SDS011;3844;53.360;9.738;2023-04-25T02:02:04;27.80;;;5.15;;
7605;SDS011;3844;53.360;9.738;2023-04-25T02:04:04;26.50;;;4.68;;
7605;SDS011;3844;53.360;9.738;2023-04-25T02:06:05;28.88;;;5.22;;
7605;SDS011;3844;53.360;9.738;2023-04-25T02:08:07;27.67;;;4.80;;
7605;SDS011;3844;53.360;9.738;2023-04-25T02:10:08;24.90;;;5.25;;
7605;SDS011;3844;53.360;9.738;2023-04-25T02:12:09;24.65;;;5.05;;
7605;SDS011;3844;53.360;9.738;2023-04-25T02:14:11;24.25;;;4.45;;
7605;SDS011;3844;53.360;9.738;2023-04-25T02:16:11;23.25;;;4.90;;
7605;SDS011;3844;53.360;9.738;2023-04-25T02:18:13;20.20;;;4.43;;
7605;SDS011;3844;53.360;9.738;2023-04-25T02:20:16;28.45;;;5.38;;
7605;SDS011;3844;53.360;9.738;2023-04-25T02:22:17;35.47;;;5.68;;
7605;SDS011;3844;53.360;9.738;2023-04-25T02:24:17;29.85;;;5.30;;
7605;SDS011;3844;53.360;9.738;2023-04-25T02:26:18;29.95;;;5.03;;
7605;SDS011;3844;53.360;9.738;2023-04-25T02:28:19;27.98;;;4.93;;
7605;SDS011;3844;53.360;9.738;2023-04-25T02:30:20;28.88;;;5.10;;
7605;SDS011;3844;53.360;9.738;2023-04-25T02:32:21;27.42;;;5.07;;
7605;SDS011;3844;53.360;9.738;2023-04-25T02:34:22;32.15;;;5.05;;
7605;SDS011;3844;53.360;9.738;2023-04-25T02:36:23;23.88;;;5.00;;
7605;SDS011;3844;53.360;9.738;2023-04-25T02:38:24;22.98;;;4.50;;
7605;SDS011;3844;53.360;9.738;2023-04-25T02:40:24;25.80;;;4.80;;
7605;SDS011;3844;53.360;9.738;2023-04-25T02:42:26;25.08;;;5.07;;
7605;SDS011;3844;53.360;9.738;2023-04-25T02:44:27;29.15;;;5.45;;
7605;SDS011;3844;53.360;9.738;2023-04-25T02:46:27;29.80;;;5.32;;
7605;SDS011;3844;53.360;9.738;2023-04-25T02:48:28;32.10;;;5.47;;
7605;SDS011;3844;53.360;9.738;2023-04-25T02:50:29;21.73;;;4.55;;
7605;SDS011;3844;53.360;9.738;2023-04-25T02:52:30;25.15;;;5.20;;
7605;SDS011;3844;53.360;9.738;2023-04-25T02:54:31;26.02;;;4.65;;
7605;SDS011;3844;53.360;9.738;2023-04-25T02:56:32;23.13;;;4.82;;
7605;SDS011;3844;53.360;9.738;2023-04-25T02:58:32;30.52;;;4.95;;
7605;SDS011;3844;53.360;9.738;2023-04-25T03:00:33;24.70;;;4.60;;
7605;SDS011;3844;53.360;9.738;2023-04-25T03:02:34;26.30;;;4.78;;
7605;SDS011;3844;53.360;9.738;2023-04-25T03:04:35;26.35;;;5.18;;
7605;SDS011;3844;53.360;9.738;2023-04-25T03:06:36;19.88;;;4.35;;
7605;SDS011;3844;53.360;9.738;2023-04-25T03:08:36;22.10;;;4.88;;
7605;SDS011;3844;53.360;9.738;2023-04-25T03:10:38;23.92;;;4.45;;
7605;SDS011;3844;53.360;9.738;2023-04-25T03:12:39;27.25;;;4.35;;
7605;SDS011;3844;53.360;9.738;2023-04-25T03:14:40;25.30;;;4.65;;
7605;SDS011;3844;53.360;9.738;2023-04-25T03:16:41;24.58;;;4.45;;
7605;SDS011;3844;53.360;9.738;2023-04-25T03:18:41;24.30;;;4.38;;
7605;SDS011;3844;53.360;9.738;2023-04-25T03:20:42;22.85;;;4.25;;
7605;SDS011;3844;53.360;9.738;2023-04-25T03:22:43;18.25;;;4.45;;
7605;SDS011;3844;53.360;9.738;2023-04-25T03:24:44;19.80;;;4.25;;
7605;SDS011;3844;53.360;9.738;2023-04-25T03:26:45;29.50;;;4.45;;
7605;SDS011;3844;53.360;9.738;2023-04-25T03:28:46;21.38;;;4.50;;
7605;SDS011;3844;53.360;9.738;2023-04-25T03:30:47;19.58;;;4.28;;
7605;SDS011;3844;53.360;9.738;2023-04-25T03:32:48;23.38;;;4.43;;
7605;SDS011;3844;53.360;9.738;2023-04-25T03:34:49;19.77;;;3.88;;
7605;SDS011;3844;53.360;9.738;2023-04-25T03:36:49;24.83;;;4.43;;
7605;SDS011;3844;53.360;9.738;2023-04-25T03:38:50;19.77;;;3.97;;
7605;SDS011;3844;53.360;9.738;2023-04-25T03:40:51;20.50;;;4.18;;
7605;SDS011;3844;53.360;9.738;2023-04-25T03:42:52;22.85;;;4.40;;
7605;SDS011;3844;53.360;9.738;2023-04-25T03:44:53;19.20;;;4.30;;
7605;SDS011;3844;53.360;9.738;2023-04-25T03:46:54;21.10;;;4.13;;
7605;SDS011;3844;53.360;9.738;2023-04-25T03:48:55;18.83;;;4.30;;
7605;SDS011;3844;53.360;9.738;2023-04-25T03:50:56;24.42;;;4.40;;
7605;SDS011;3844;53.360;9.738;2023-04-25T03:52:57;19.40;;;4.10;;
7605;SDS011;3844;53.360;9.738;2023-04-25T03:54:57;21.55;;;4.30;;
7605;SDS011;3844;53.360;9.738;2023-04-25T03:56:58;22.27;;;4.78;;
7605;SDS011;3844;53.360;9.738;2023-04-25T03:58:59;23.70;;;4.43;;
7605;SDS011;3844;53.360;9.738;2023-04-25T04:01:00;21.00;;;4.80;;
7605;SDS011;3844;53.360;9.738;2023-04-25T04:03:03;18.07;;;4.13;;
7605;SDS011;3844;53.360;9.738;2023-04-25T04:05:04;20.73;;;4.28;;
7605;SDS011;3844;53.360;9.738;2023-04-25T04:07:05;19.48;;;4.20;;
7605;SDS011;3844;53.360;9.738;2023-04-25T04:09:06;17.95;;;4.35;;
7605;SDS011;3844;53.360;9.738;2023-04-25T04:11:10;19.42;;;4.50;;
7605;SDS011;3844;53.360;9.738;2023-04-25T04:13:11;17.30;;;4.40;;
7605;SDS011;3844;53.360;9.738;2023-04-25T04:15:12;19.60;;;4.75;;
7605;SDS011;3844;53.360;9.738;2023-04-25T04:17:13;16.77;;;3.80;;
7605;SDS011;3844;53.360;9.738;2023-04-25T04:19:14;26.40;;;4.93;;
7605;SDS011;3844;53.360;9.738;2023-04-25T04:21:15;20.42;;;4.35;;
7605;SDS011;3844;53.360;9.738;2023-04-25T04:23:16;23.77;;;4.88;;
7605;SDS011;3844;53.360;9.738;2023-04-25T04:25:17;18.52;;;4.30;;
7605;SDS011;3844;53.360;9.738;2023-04-25T04:27:18;26.13;;;5.38;;
7605;SDS011;3844;53.360;9.738;2023-04-25T04:29:19;29.15;;;5.00;;
7605;SDS011;3844;53.360;9.738;2023-04-25T04:31:22;21.90;;;4.90;;
7605;SDS011;3844;53.360;9.738;2023-04-25T04:33:23;21.23;;;4.55;;
7605;SDS011;3844;53.360;9.738;2023-04-25T04:35:24;18.90;;;4.55;;
7605;SDS011;3844;53.360;9.738;2023-04-25T04:37:25;28.67;;;4.70;;
7605;SDS011;3844;53.360;9.738;2023-04-25T04:39:26;22.80;;;4.32;;
7605;SDS011;3844;53.360;9.738;2023-04-25T04:41:27;29.65;;;4.68;;
7605;SDS011;3844;53.360;9.738;2023-04-25T04:43:28;21.65;;;4.50;;
7605;SDS011;3844;53.360;9.738;2023-04-25T04:45:29;26.23;;;4.72;;
7605;SDS011;3844;53.360;9.738;2023-04-25T04:47:30;22.92;;;3.95;;
7605;SDS011;3844;53.360;9.738;2023-04-25T04:49:32;17.88;;;3.92;;
7605;SDS011;3844;53.360;9.738;2023-04-25T04:51:33;21.55;;;4.10;;
7605;SDS011;3844;53.360;9.738;2023-04-25T04:53:33;22.63;;;3.97;;
7605;SDS011;3844;53.360;9.738;2023-04-25T04:55:35;26.67;;;4.40;;
7605;SDS011;3844;53.360;9.738;2023-04-25T04:57:35;20.08;;;4.00;;
7605;SDS011;3844;53.360;9.738;2023-04-25T04:59:36;20.42;;;4.15;;
7605;SDS011;3844;53.360;9.738;2023-04-25T05:01:37;25.05;;;4.57;;
7605;SDS011;3844;53.360;9.738;2023-04-25T05:03:38;19.25;;;3.70;;
7605;SDS011;3844;53.360;9.738;2023-04-25T05:05:39;23.05;;;3.72;;
7605;SDS011;3844;53.360;9.738;2023-04-25T05:07:41;22.10;;;4.20;;
7605;SDS011;3844;53.360;9.738;2023-04-25T05:09:41;16.83;;;3.67;;
7605;SDS011;3844;53.360;9.738;2023-04-25T05:11:42;21.98;;;3.90;;
7605;SDS011;3844;53.360;9.738;2023-04-25T05:13:43;22.08;;;3.97;;
7605;SDS011;3844;53.360;9.738;2023-04-25T05:15:44;24.58;;;3.40;;
7605;SDS011;3844;53.360;9.738;2023-04-25T05:17:45;22.73;;;3.75;;
7605;SDS011;3844;53.360;9.738;2023-04-25T05:19:45;19.13;;;3.30;;
7605;SDS011;3844;53.360;9.738;2023-04-25T05:21:46;21.27;;;3.55;;
7605;SDS011;3844;53.360;9.738;2023-04-25T05:23:47;18.38;;;3.83;;
7605;SDS011;3844;53.360;9.738;2023-04-25T05:25:49;19.25;;;3.50;;
7605;SDS011;3844;53.360;9.738;2023-04-25T05:27:50;21.02;;;3.53;;
7605;SDS011;3844;53.360;9.738;2023-04-25T05:29:52;22.65;;;3.70;;
7605;SDS011;3844;53.360;9.738;2023-04-25T05:31:53;17.95;;;3.97;;
7605;SDS011;3844;53.360;9.738;2023-04-25T05:33:54;18.58;;;3.50;;
7605;SDS011;3844;53.360;9.738;2023-04-25T05:35:54;18.15;;;3.38;;
7605;SDS011;3844;53.360;9.738;2023-04-25T05:37:56;19.35;;;3.50;;
7605;SDS011;3844;53.360;9.738;2023-04-25T05:39:56;20.27;;;3.53;;
7605;SDS011;3844;53.360;9.738;2023-04-25T05:41:57;19.50;;;3.35;;
7605;SDS011;3844;53.360;9.738;2023-04-25T05:43:58;12.25;;;3.00;;
7605;SDS011;3844;53.360;9.738;2023-04-25T05:45:59;16.58;;;2.95;;
7605;SDS011;3844;53.360;9.738;2023-04-25T05:47:59;17.10;;;3.25;;
7605;SDS011;3844;53.360;9.738;2023-04-25T05:50:00;18.67;;;3.40;;
7605;SDS011;3844;53.360;9.738;2023-04-25T05:52:01;14.68;;;2.90;;
7605;SDS011;3844;53.360;9.738;2023-04-25T05:54:02;16.75;;;2.88;;
7605;SDS011;3844;53.360;9.738;2023-04-25T05:56:03;16.98;;;3.05;;
7605;SDS011;3844;53.360;9.738;2023-04-25T05:58:05;14.50;;;3.05;;
7605;SDS011;3844;53.360;9.738;2023-04-25T06:00:07;18.52;;;3.47;;
7605;SDS011;3844;53.360;9.738;2023-04-25T06:02:09;17.13;;;3.17;;
7605;SDS011;3844;53.360;9.738;2023-04-25T06:04:09;23.30;;;3.25;;
7605;SDS011;3844;53.360;9.738;2023-04-25T06:06:11;17.38;;;2.92;;
7605;SDS011;3844;53.360;9.738;2023-04-25T06:08:12;15.45;;;2.97;;
7605;SDS011;3844;53.360;9.738;2023-04-25T06:10:12;17.50;;;3.15;;
7605;SDS011;3844;53.360;9.738;2023-04-25T06:12:13;18.35;;;2.83;;
7605;SDS011;3844;53.360;9.738;2023-04-25T06:14:14;16.67;;;3.13;;
7605;SDS011;3844;53.360;9.738;2023-04-25T06:16:15;16.63;;;3.10;;
7605;SDS011;3844;53.360;9.738;2023-04-25T06:18:16;19.15;;;2.88;;
7605;SDS011;3844;53.360;9.738;2023-04-25T06:20:17;19.40;;;3.20;;
7605;SDS011;3844;53.360;9.738;2023-04-25T06:22:18;15.43;;;3.17;;
7605;SDS011;3844;53.360;9.738;2023-04-25T06:24:18;19.38;;;3.33;;
7605;SDS011;3844;53.360;9.738;2023-04-25T06:26:19;17.58;;;3.28;;
7605;SDS011;3844;53.360;9.738;2023-04-25T06:28:20;16.88;;;3.20;;
7605;SDS011;3844;53.360;9.738;2023-04-25T06:30:22;17.58;;;3.15;;
7605;SDS011;3844;53.360;9.738;2023-04-25T06:32:25;13.07;;;3.08;;
7605;SDS011;3844;53.360;9.738;2023-04-25T06:34:28;12.80;;;2.97;;
7605;SDS011;3844;53.360;9.738;2023-04-25T06:36:30;13.25;;;3.28;;
7605;SDS011;3844;53.360;9.738;2023-04-25T06:38:30;17.15;;;3.28;;
7605;SDS011;3844;53.360;9.738;2023-04-25T06:40:31;19.20;;;3.22;;
7605;SDS011;3844;53.360;9.738;2023-04-25T06:42:32;21.35;;;3.30;;
7605;SDS011;3844;53.360;9.738;2023-04-25T06:44:33;16.95;;;2.92;;
7605;SDS011;3844;53.360;9.738;2023-04-25T06:46:34;18.55;;;2.97;;
7605;SDS011;3844;53.360;9.738;2023-04-25T06:48:36;15.38;;;3.20;;
7605;SDS011;3844;53.360;9.738;2023-04-25T06:50:36;16.00;;;2.88;;
7605;SDS011;3844;53.360;9.738;2023-04-25T06:52:37;14.32;;;2.42;;
7605;SDS011;3844;53.360;9.738;2023-04-25T06:54:38;19.25;;;2.60;;
7605;SDS011;3844;53.360;9.738;2023-04-25T06:56:39;14.65;;;3.22;;
7605;SDS011;3844;53.360;9.738;2023-04-25T06:58:40;12.05;;;2.47;;
7605;SDS011;3844;53.360;9.738;2023-04-25T07:00:40;15.38;;;2.67;;
7605;SDS011;3844;53.360;9.738;2023-04-25T07:02:41;11.88;;;2.20;;
7605;SDS011;3844;53.360;9.738;2023-04-25T07:04:43;13.98;;;2.60;;
7605;SDS011;3844;53.360;9.738;2023-04-25T07:06:46;13.15;;;2.78;;
7605;SDS011;3844;53.360;9.738;2023-04-25T07:08:48;17.65;;;2.60;;
7605;SDS011;3844;53.360;9.738;2023-04-25T07:10:48;15.18;;;2.60;;
7605;SDS011;3844;53.360;9.738;2023-04-25T07:12:50;17.10;;;2.70;;
7605;SDS011;3844;53.360;9.738;2023-04-25T07:14:51;15.27;;;2.50;;
7605;SDS011;3844;53.360;9.738;2023-04-25T07:16:52;12.20;;;2.67;;
7605;SDS011;3844;53.360;9.738;2023-04-25T07:18:53;12.65;;;3.17;;
7605;SDS011;3844;53.360;9.738;2023-04-25T07:20:53;12.13;;;2.53;;
7605;SDS011;3844;53.360;9.738;2023-04-25T07:22:54;11.88;;;2.38;;
7605;SDS011;3844;53.360;9.738;2023-04-25T07:24:55;11.45;;;2.10;;
7605;SDS011;3844;53.360;9.738;2023-04-25T07:26:56;11.10;;;2.33;;
7605;SDS011;3844;53.360;9.738;2023-04-25T07:28:57;14.45;;;2.63;;
7605;SDS011;3844;53.360;9.738;2023-04-25T07:30:58;15.55;;;2.22;;
7605;SDS011;3844;53.360;9.738;2023-04-25T07:32:59;13.45;;;2.35;;
7605;SDS011;3844;53.360;9.738;2023-04-25T07:35:00;13.27;;;2.38;;
7605;SDS011;3844;53.360;9.738;2023-04-25T07:37:01;15.10;;;2.75;;
7605;SDS011;3844;53.360;9.738;2023-04-25T07:39:02;9.30;;;2.10;;
7605;SDS011;3844;53.360;9.738;2023-04-25T07:41:03;11.27;;;2.53;;
7605;SDS011;3844;53.360;9.738;2023-04-25T07:43:04;12.07;;;2.22;;
7605;SDS011;3844;53.360;9.738;2023-04-25T07:45:04;10.75;;;2.25;;
7605;SDS011;3844;53.360;9.738;2023-04-25T07:47:06;11.45;;;2.20;;
7605;SDS011;3844;53.360;9.738;2023-04-25T07:49:07;13.10;;;1.80;;
7605;SDS011;3844;53.360;9.738;2023-04-25T07:51:08;10.80;;;2.08;;
7605;SDS011;3844;53.360;9.738;2023-04-25T07:53:09;9.98;;;1.90;;
7605;SDS011;3844;53.360;9.738;2023-04-25T07:55:10;13.48;;;3.42;;
7605;SDS011;3844;53.360;9.738;2023-04-25T07:57:11;11.07;;;2.47;;
7605;SDS011;3844;53.360;9.738;2023-04-25T07:59:13;8.45;;;1.60;;
7605;SDS011;3844;53.360;9.738;2023-04-25T08:01:14;11.60;;;1.70;;
7605;SDS011;3844;53.360;9.738;2023-04-25T08:03:15;11.10;;;1.70;;
7605;SDS011;3844;53.360;9.738;2023-04-25T08:05:16;9.70;;;1.92;;
7605;SDS011;3844;53.360;9.738;2023-04-25T08:07:17;11.38;;;1.95;;
7605;SDS011;3844;53.360;9.738;2023-04-25T08:09:18;6.85;;;1.48;;
7605;SDS011;3844;53.360;9.738;2023-04-25T08:11:18;9.07;;;1.45;;
7605;SDS011;3844;53.360;9.738;2023-04-25T08:13:19;5.70;;;1.38;;
7605;SDS011;3844;53.360;9.738;2023-04-25T08:15:21;9.80;;;1.60;;
7605;SDS011;3844;53.360;9.738;2023-04-25T08:17:21;12.18;;;2.00;;
7605;SDS011;3844;53.360;9.738;2023-04-25T08:19:22;10.57;;;1.77;;
7605;SDS011;3844;53.360;9.738;2023-04-25T08:21:23;14.07;;;2.10;;
7605;SDS011;3844;53.360;9.738;2023-04-25T08:23:24;8.95;;;1.80;;
7605;SDS011;3844;53.360;9.738;2023-04-25T08:25:24;10.30;;;1.80;;
7605;SDS011;3844;53.360;9.738;2023-04-25T08:27:25;11.43;;;2.00;;
7605;SDS011;3844;53.360;9.738;2023-04-25T08:29:26;11.45;;;2.05;;
7605;SDS011;3844;53.360;9.738;2023-04-25T08:31:28;9.98;;;2.00;;
7605;SDS011;3844;53.360;9.738;2023-04-25T08:33:29;12.10;;;1.80;;
7605;SDS011;3844;53.360;9.738;2023-04-25T08:35:30;9.05;;;1.40;;
7605;SDS011;3844;53.360;9.738;2023-04-25T08:37:31;8.38;;;1.30;;
7605;SDS011;3844;53.360;9.738;2023-04-25T08:39:32;8.38;;;1.27;;
7605;SDS011;3844;53.360;9.738;2023-04-25T08:41:32;5.70;;;1.13;;
7605;SDS011;3844;53.360;9.738;2023-04-25T08:43:34;4.47;;;1.00;;
7605;SDS011;3844;53.360;9.738;2023-04-25T08:45:35;6.53;;;1.08;;
7605;SDS011;3844;53.360;9.738;2023-04-25T08:47:37;5.45;;;1.05;;
7605;SDS011;3844;53.360;9.738;2023-04-25T08:49:39;7.60;;;1.30;;
7605;SDS011;3844;53.360;9.738;2023-04-25T08:51:45;7.47;;;1.35;;
7605;SDS011;3844;53.360;9.738;2023-04-25T08:53:47;7.68;;;1.20;;
7605;SDS011;3844;53.360;9.738;2023-04-25T08:55:50;6.53;;;1.38;;
7605;SDS011;3844;53.360;9.738;2023-04-25T08:57:52;9.85;;;1.45;;
7605;SDS011;3844;53.360;9.738;2023-04-25T09:01:57;7.95;;;1.35;;
7605;SDS011;3844;53.360;9.738;2023-04-25T09:03:58;10.88;;;1.58;;
7605;SDS011;3844;53.360;9.738;2023-04-25T09:05:58;12.23;;;1.55;;
7605;SDS011;3844;53.360;9.738;2023-04-25T09:08:00;10.65;;;1.50;;
7605;SDS011;3844;53.360;9.738;2023-04-25T09:10:01;12.82;;;1.73;;
7605;SDS011;3844;53.360;9.738;2023-04-25T09:12:03;11.38;;;1.88;;
7605;SDS011;3844;53.360;9.738;2023-04-25T09:14:20;10.00;;;1.70;;
7605;SDS011;3844;53.360;9.738;2023-04-25T09:16:22;8.63;;;1.65;;
7605;SDS011;3844;53.360;9.738;2023-04-25T09:18:24;11.57;;;1.77;;
7605;SDS011;3844;53.360;9.738;2023-04-25T09:20:29;9.93;;;1.60;;
7605;SDS011;3844;53.360;9.738;2023-04-25T09:22:30;6.15;;;1.23;;
7605;SDS011;3844;53.360;9.738;2023-04-25T09:26:45;4.45;;;1.02;;
7605;SDS011;3844;53.360;9.738;2023-04-25T09:28:46;9.00;;;1.10;;
7605;SDS011;3844;53.360;9.738;2023-04-25T09:30:53;7.30;;;1.10;;
7605;SDS011;3844;53.360;9.738;2023-04-25T09:32:56;8.35;;;1.27;;
7605;SDS011;3844;53.360;9.738;2023-04-25T09:35:03;6.60;;;1.30;;
7605;SDS011;3844;53.360;9.738;2023-04-25T09:37:04;12.63;;;1.45;;
7605;SDS011;3844;53.360;9.738;2023-04-25T09:39:06;11.23;;;1.90;;
7605;SDS011;3844;53.360;9.738;2023-04-25T09:41:15;10.60;;;1.50;;
7605;SDS011;3844;53.360;9.738;2023-04-25T09:43:25;10.10;;;1.75;;
7605;SDS011;3844;53.360;9.738;2023-04-25T09:45:29;9.32;;;1.35;;
7605;SDS011;3844;53.360;9.738;2023-04-25T09:47:31;11.35;;;1.30;;
7605;SDS011;3844;53.360;9.738;2023-04-25T09:49:32;10.20;;;1.73;;
7605;SDS011;3844;53.360;9.738;2023-04-25T09:51:32;7.47;;;1.45;;
7605;SDS011;3844;53.360;9.738;2023-04-25T09:53:36;9.85;;;1.80;;
7605;SDS011;3844;53.360;9.738;2023-04-25T09:55:38;9.63;;;1.58;;
7605;SDS011;3844;53.360;9.738;2023-04-25T09:57:41;10.52;;;1.38;;
7605;SDS011;3844;53.360;9.738;2023-04-25T09:59:44;10.68;;;1.58;;
7605;SDS011;3844;53.360;9.738;2023-04-25T10:01:45;8.30;;;1.55;;
7605;SDS011;3844;53.360;9.738;2023-04-25T10:03:48;9.75;;;1.40;;
7605;SDS011;3844;53.360;9.738;2023-04-25T10:07:52;10.98;;;1.60;;
7605;SDS011;3844;53.360;9.738;2023-04-25T10:10:03;11.77;;;1.55;;
7605;SDS011;3844;53.360;9.738;2023-04-25T10:12:05;11.63;;;1.77;;
7605;SDS011;3844;53.360;9.738;2023-04-25T10:14:07;12.77;;;1.95;;
7605;SDS011;3844;53.360;9.738;2023-04-25T10:16:08;11.00;;;1.80;;
7605;SDS011;3844;53.360;9.738;2023-04-25T10:18:09;9.45;;;1.67;;
7605;SDS011;3844;53.360;9.738;2023-04-25T10:20:11;9.80;;;1.65;;
7605;SDS011;3844;53.360;9.738;2023-04-25T10:22:14;12.02;;;1.98;;
7605;SDS011;3844;53.360;9.738;2023-04-25T10:24:20;8.00;;;1.70;;
7605;SDS011;3844;53.360;9.738;2023-04-25T10:26:21;6.60;;;1.38;;
7605;SDS011;3844;53.360;9.738;2023-04-25T10:28:22;14.18;;;1.65;;
7605;SDS011;3844;53.360;9.738;2023-04-25T10:30:23;8.95;;;1.63;;
7605;SDS011;3844;53.360;9.738;2023-04-25T10:32:23;7.60;;;1.50;;
7605;SDS011;3844;53.360;9.738;2023-04-25T10:34:37;13.60;;;1.90;;
7605;SDS011;3844;53.360;9.738;2023-04-25T10:36:39;7.32;;;1.35;;
7605;SDS011;3844;53.360;9.738;2023-04-25T10:38:41;10.35;;;1.63;;
7605;SDS011;3844;53.360;9.738;2023-04-25T10:41:02;6.85;;;1.35;;
7605;SDS011;3844;53.360;9.738;2023-04-25T10:45:50;7.93;;;1.50;;
7605;SDS011;3844;53.360;9.738;2023-04-25T10:47:52;8.27;;;1.38;;
7605;SDS011;3844;53.360;9.738;2023-04-25T10:49:52;7.57;;;1.40;;
7605;SDS011;3844;53.360;9.738;2023-04-25T10:51:58;7.28;;;1.30;;
7605;SDS011;3844;53.360;9.738;2023-04-25T10:54:11;6.25;;;1.30;;
7605;SDS011;3844;53.360;9.738;2023-04-25T10:58:21;12.27;;;1.60;;
7605;SDS011;3844;53.360;9.738;2023-04-25T11:00:22;8.40;;;1.35;;
7605;SDS011;3844;53.360;9.738;2023-04-25T11:02:27;8.10;;;1.35;;
7605;SDS011;3844;53.360;9.738;2023-04-25T11:04:29;11.00;;;1.50;;
7605;SDS011;3844;53.360;9.738;2023-04-25T11:06:43;8.77;;;1.58;;
7605;SDS011;3844;53.360;9.738;2023-04-25T11:09:10;8.07;;;1.48;;
7605;SDS011;3844;53.360;9.738;2023-04-25T11:11:18;9.38;;;1.60;;
7605;SDS011;3844;53.360;9.738;2023-04-25T11:13:22;6.50;;;1.20;;
7605;SDS011;3844;53.360;9.738;2023-04-25T11:15:22;8.07;;;1.40;;
7605;SDS011;3844;53.360;9.738;2023-04-25T11:17:24;8.60;;;1.30;;
7605;SDS011;3844;53.360;9.738;2023-04-25T11:19:26;8.77;;;1.35;;
7605;SDS011;3844;53.360;9.738;2023-04-25T11:21:27;8.77;;;1.35;;
7605;SDS011;3844;53.360;9.738;2023-04-25T11:23:28;9.73;;;1.42;;
7605;SDS011;3844;53.360;9.738;2023-04-25T11:25:30;8.40;;;1.40;;
7605;SDS011;3844;53.360;9.738;2023-04-25T11:27:31;7.90;;;1.20;;
7605;SDS011;3844;53.360;9.738;2023-04-25T11:29:32;6.90;;;1.38;;
7605;SDS011;3844;53.360;9.738;2023-04-25T11:31:34;11.13;;;1.50;;
7605;SDS011;3844;53.360;9.738;2023-04-25T11:33:35;7.78;;;1.50;;
7605;SDS011;3844;53.360;9.738;2023-04-25T11:35:36;9.00;;;1.45;;
7605;SDS011;3844;53.360;9.738;2023-04-25T11:37:41;7.15;;;1.20;;
7605;SDS011;3844;53.360;9.738;2023-04-25T11:39:43;6.22;;;1.13;;
7605;SDS011;3844;53.360;9.738;2023-04-25T11:41:46;9.43;;;1.42;;
7605;SDS011;3844;53.360;9.738;2023-04-25T11:43:47;7.40;;;1.40;;
7605;SDS011;3844;53.360;9.738;2023-04-25T11:45:49;9.70;;;1.40;;
7605;SDS011;3844;53.360;9.738;2023-04-25T11:47:53;6.97;;;1.20;;
7605;SDS011;3844;53.360;9.738;2023-04-25T11:49:54;8.95;;;1.23;;
7605;SDS011;3844;53.360;9.738;2023-04-25T11:51:55;7.90;;;1.50;;
7605;SDS011;3844;53.360;9.738;2023-04-25T11:53:56;6.35;;;1.20;;
7605;SDS011;3844;53.360;9.738;2023-04-25T11:55:57;7.55;;;1.40;;
7605;SDS011;3844;53.360;9.738;2023-04-25T11:57:59;5.13;;;1.20;;
7605;SDS011;3844;53.360;9.738;2023-04-25T12:02:25;8.02;;;1.30;;
7605;SDS011;3844;53.360;9.738;2023-04-25T12:04:29;8.40;;;1.23;;
7605;SDS011;3844;53.360;9.738;2023-04-25T12:06:31;4.35;;;0.88;;
7605;SDS011;3844;53.360;9.738;2023-04-25T12:08:32;10.43;;;1.20;;
7605;SDS011;3844;53.360;9.738;2023-04-25T12:10:33;10.18;;;1.25;;
7605;SDS011;3844;53.360;9.738;2023-04-25T12:12:41;7.43;;;1.42;;
7605;SDS011;3844;53.360;9.738;2023-04-25T12:14:45;8.85;;;1.40;;
7605;SDS011;3844;53.360;9.738;2023-04-25T12:16:50;7.75;;;1.27;;
7605;SDS011;3844;53.360;9.738;2023-04-25T12:18:51;8.13;;;1.40;;
7605;SDS011;3844;53.360;9.738;2023-04-25T12:20:53;8.82;;;1.40;;
7605;SDS011;3844;53.360;9.738;2023-04-25T12:22:56;6.60;;;1.08;;
7605;SDS011;3844;53.360;9.738;2023-04-25T12:24:57;9.27;;;1.30;;
7605;SDS011;3844;53.360;9.738;2023-04-25T12:26:59;7.40;;;1.30;;
7605;SDS011;3844;53.360;9.738;2023-04-25T12:29:01;7.00;;;1.38;;
7605;SDS011;3844;53.360;9.738;2023-04-25T12:31:14;6.60;;;1.30;;
7605;SDS011;3844;53.360;9.738;2023-04-25T12:33:16;7.82;;;1.13;;
7605;SDS011;3844;53.360;9.738;2023-04-25T12:35:17;5.30;;;1.17;;
7605;SDS011;3844;53.360;9.738;2023-04-25T12:37:17;5.68;;;1.10;;
7605;SDS011;3844;53.360;9.738;2023-04-25T12:39:19;7.22;;;1.20;;
7605;SDS011;3844;53.360;9.738;2023-04-25T12:41:24;6.65;;;1.08;;